Time;durP1;ratioP1;P1;durP2;ratioP2;P2;SDS_P1;SDS_P2;PMS_P1;PMS_P2;Temp;Humidity;BMP_temperature;BMP_pressure;BME280_temperature;BME280_humidity;BME280_pressure;Samples;Min_cycle;Max_cycle;Signal;HPM_P1;HPM_P2
2022/01/03 00:03:02;;;;;;;3.00;2.60;;;;;;;8.06;80.67;98518.23;445419;1270;144363;-61
2022/01/03 00:13:08;;;;;;;2.40;2.10;;;;;;;7.93;80.45;98508.13;447212;1271;142744;-60
2022/01/03 00:23:16;;;;;;;2.40;2.10;;;;;;;7.83;80.58;98496.45;447357;1271;141214;-61
2022/01/03 00:33:23;;;;;;;3.30;2.60;;;;;;;7.83;80.74;98491.36;446531;1271;142080;-60
2022/01/03 00:43:31;;;;;;;5.60;2.50;;;;;;;7.87;80.70;98486.56;447439;1271;141351;-60
2022/01/03 00:53:37;;;;;;;3.30;2.40;;;;;;;7.78;80.87;98489.19;442130;1270;142549;-57
2022/01/03 01:03:43;;;;;;;3.10;2.50;;;;;;;7.74;80.86;98475.30;439768;1271;227618;-60
2022/01/03 01:13:50;;;;;;;6.90;2.60;;;;;;;7.63;80.86;98481.83;429724;1271;145992;-59
2022/01/03 01:23:57;;;;;;;3.50;3.20;;;;;;;7.52;80.97;98487.27;447338;1271;141787;-60
2022/01/03 01:34:05;;;;;;;3.80;2.20;;;;;;;7.43;80.94;98484.39;447212;1270;142064;-60
2022/01/03 01:44:11;;;;;;;;;;;;;;;7.32;81.07;98477.35;444822;1271;143071;-60
2022/01/03 01:54:19;;;;;;;3.40;2.10;;;;;;;7.21;81.52;98477.54;446484;1271;128831;-59
2022/01/03 02:05:10;;;;;;;4.50;2.60;;;;;;;7.16;81.67;98478.37;447357;1270;143168;-59
2022/01/03 02:15:17;;;;;;;2.80;2.40;;;;;;;7.31;82.04;98472.69;446309;1271;141697;-60
2022/01/03 02:25:25;;;;;;;3.00;2.70;;;;;;;7.50;81.83;98465.30;447420;1270;145057;-60
2022/01/03 02:35:34;;;;;;;2.70;2.30;;;;;;;7.52;81.50;98449.63;433956;1270;143176;-60
2022/01/03 02:45:40;;;;;;;4.50;2.50;;;;;;;7.32;81.77;98444.27;446596;1270;141771;-60
2022/01/03 02:55:46;;;;;;;4.20;2.60;;;;;;;7.53;81.89;98452.02;444610;1270;141787;-61
2022/01/03 03:05:52;;;;;;;3.40;2.60;;;;;;;7.72;81.57;98447.76;446965;1271;142570;-61
2022/01/03 03:15:59;;;;;;;4.90;2.30;;;;;;;7.87;81.52;98436.08;446239;1271;141570;-60
2022/01/03 03:26:05;;;;;;;4.30;2.50;;;;;;;7.90;81.04;98421.60;447055;1271;143990;-61
2022/01/03 03:36:11;;;;;;;2.40;2.10;;;;;;;7.85;81.01;98414.05;446026;1273;142381;-61
2022/01/03 03:46:17;;;;;;;3.70;2.60;;;;;;;7.87;81.04;98408.70;447427;1270;141809;-61
2022/01/03 03:56:23;;;;;;;3.80;2.10;;;;;;;7.81;80.75;98398.88;447010;1271;141874;-59
2022/01/03 04:06:28;;;;;;;3.00;2.20;;;;;;;7.64;80.93;98384.01;446033;1273;142597;-59
2022/01/03 04:16:35;;;;;;;2.50;2.00;;;;;;;7.50;81.09;98369.73;446841;1272;144199;-59
2022/01/03 04:26:43;;;;;;;4.50;2.60;;;;;;;7.32;81.38;98367.31;438473;1271;141924;-59
2022/01/03 04:36:49;;;;;;;2.50;2.00;;;;;;;7.33;81.72;98368.11;446596;1270;142989;-60
2022/01/03 04:46:55;;;;;;;3.90;2.10;;;;;;;7.36;81.74;98361.05;447140;1270;141705;-60
2022/01/03 04:57:01;;;;;;;3.30;2.50;;;;;;;7.29;81.82;98350.27;447078;1271;141914;-60
2022/01/03 05:07:07;;;;;;;5.00;2.20;;;;;;;7.20;82.07;98332.75;437279;1271;142427;-59
2022/01/03 05:17:13;;;;;;;1.80;1.60;;;;;;;7.06;82.21;98322.27;443804;1271;142263;-61
2022/01/03 05:27:18;;;;;;;4.00;2.10;;;;;;;7.07;82.61;98310.90;446284;1271;145086;-60
2022/01/03 05:37:24;;;;;;;4.50;2.60;;;;;;;7.20;82.66;98301.98;447009;1271;141737;-59
2022/01/03 05:47:30;;;;;;;5.00;3.00;;;;;;;7.25;82.86;98302.99;447093;1270;142017;-61
2022/01/03 05:57:36;;;;;;;4.30;3.50;;;;;;;7.21;83.39;98297.34;446707;1270;142507;-61
2022/01/03 06:07:41;;;;;;;4.90;4.00;;;;;;;7.08;84.03;98286.47;446992;1271;143937;-52
2022/01/03 06:17:47;;;;;;;5.00;3.40;;;;;;;6.92;84.38;98282.37;447288;1270;140925;-51
2022/01/03 06:27:53;;;;;;;7.20;3.90;;;;;;;6.86;84.73;98286.41;446311;1271;184015;-54
2022/01/03 06:38:00;;;;;;;5.40;4.80;;;;;;;6.86;85.21;98291.99;434100;1270;141274;-49
2022/01/03 06:48:06;;;;;;;7.70;5.10;;;;;;;6.79;85.60;98292.98;443940;1270;160797;-54
2022/01/03 06:58:12;;;;;;;5.90;3.70;;;;;;;6.62;86.05;98305.45;447336;1270;142263;-53
2022/01/03 07:08:20;;;;;;;6.00;4.40;;;;;;;6.51;86.46;98311.59;447237;1270;146068;-54
2022/01/03 07:28:49;;;;;;;4.00;3.00;;;;;;;6.47;87.23;98318.80;447338;1270;141969;-51
2022/01/03 07:38:55;;;;;;;3.20;2.70;;;;;;;6.50;87.45;98317.19;447164;1270;142158;-48
2022/01/03 07:49:01;;;;;;;3.40;2.70;;;;;;;6.50;87.70;98336.89;446326;1271;141691;-49
2022/01/03 07:59:06;;;;;;;3.40;1.80;;;;;;;6.46;87.77;98332.58;445008;1271;144693;-54
2022/01/03 08:09:12;;;;;;;2.70;1.30;;;;;;;6.28;87.41;98346.62;446503;1270;143701;-49
2022/01/03 08:19:18;;;;;;;2.10;1.30;;;;;;;6.18;87.35;98324.56;434762;1271;198843;-49
2022/01/03 08:29:24;;;;;;;1.60;1.40;;;;;;;6.12;87.33;98317.98;440698;1271;142054;-50
2022/01/03 08:39:30;;;;;;;2.50;2.00;;;;;;;6.10;87.75;98312.16;445208;1271;141881;-51
2022/01/03 08:49:36;;;;;;;2.20;2.00;;;;;;;6.20;88.34;98309.09;447204;1270;142726;-53
2022/01/03 08:59:42;;;;;;;2.80;2.00;;;;;;;6.32;88.46;98307.42;447115;1270;142803;-53
2022/01/03 09:09:48;;;;;;;5.50;4.00;;;;;;;6.46;88.62;98305.81;444410;1270;141286;-48
2022/01/03 09:19:54;;;;;;;3.10;1.80;;;;;;;6.78;88.52;98298.80;430354;1270;142345;-49
2022/01/03 09:29:59;;;;;;;4.50;2.30;;;;;;;6.88;88.16;98290.95;447383;1270;141057;-53
2022/01/03 09:40:08;;;;;;;2.10;1.20;;;;;;;6.93;87.90;98284.38;447392;1270;142345;-52
2022/01/03 09:50:17;;;;;;;2.00;1.40;;;;;;;6.98;87.51;98276.52;436184;1271;141649;-51
2022/01/03 10:00:24;;;;;;;3.70;1.00;;;;;;;6.93;87.44;98276.53;428924;1271;145866;-47
2022/01/03 10:10:30;;;;;;;1.40;0.70;;;;;;;6.82;87.11;98271.59;432112;1270;142134;-48
2022/01/03 10:20:41;;;;;;;2.00;1.00;;;;;;;6.77;86.90;98266.14;429786;1270;140517;-49
2022/01/03 10:30:47;;;;;;;3.60;1.50;;;;;;;6.61;86.91;98265.00;429062;1270;141142;-51
2022/01/03 10:41:08;;;;;;;1.70;1.60;;;;;;;6.52;86.90;98276.02;429819;1270;145479;-49
2022/01/03 10:51:20;;;;;;;2.30;1.30;;;;;;;6.60;86.93;98271.28;429167;1270;141532;-52
2022/01/03 11:01:27;;;;;;;2.00;1.20;;;;;;;6.66;86.48;98273.20;442689;1270;143028;-51
2022/01/03 11:11:41;;;;;;;2.00;1.30;;;;;;;6.68;86.54;98276.20;447201;1272;141580;-52
2022/01/03 11:21:52;;;;;;;2.00;1.20;;;;;;;6.73;86.27;98276.18;446634;1270;141991;-50
2022/01/03 11:32:00;;;;;;;2.40;1.30;;;;;;;6.63;86.48;98272.83;447323;1268;142158;-53
2022/01/03 11:42:05;;;;;;;;;;;;;;;6.48;86.60;98273.70;446278;1270;165215;-51
2022/01/03 11:52:14;;;;;;;1.70;1.60;;;;;;;6.34;86.65;98283.10;447441;1270;129274;-51
2022/01/03 12:13:00;;;;;;;0.70;0.60;;;;;;;6.06;86.66;98320.09;430055;1271;143171;-54
2022/01/03 12:23:09;;;;;;;1.60;1.50;;;;;;;5.80;87.03;98342.56;447224;1270;141440;-52
2022/01/03 12:33:22;;;;;;;0.90;0.80;;;;;;;5.70;87.23;98363.89;446448;1269;142292;-51
2022/01/03 12:43:50;;;;;;;0.50;0.40;;;;;;;5.60;87.63;98390.58;447154;1270;142027;-50
2022/01/03 12:53:56;;;;;;;2.00;0.90;;;;;;;5.52;87.81;98411.02;447227;1270;142543;-52
2022/01/03 13:04:18;;;;;;;1.10;0.80;;;;;;;5.48;88.07;98425.84;445973;1271;180873;-51
2022/01/03 13:14:25;;;;;;;3.70;1.70;;;;;;;5.47;88.20;98447.76;446921;1271;142238;-52
2022/01/03 13:24:35;;;;;;;1.60;0.90;;;;;;;5.45;88.12;98456.71;446097;1273;141879;-54
2022/01/03 13:34:41;;;;;;;2.30;1.40;;;;;;;5.49;88.50;98470.23;446907;1271;142306;-52
2022/01/03 13:55:19;;;;;;;2.70;2.00;;;;;;;5.72;88.72;98494.85;433162;1271;142065;-49
2022/01/03 14:05:24;;;;;;;2.70;2.50;;;;;;;5.87;88.61;98504.31;446998;1270;141887;-55
2022/01/03 14:15:30;;;;;;;3.40;2.80;;;;;;;5.92;88.48;98510.80;443109;1271;142383;-52
2022/01/03 14:25:36;;;;;;;3.20;2.00;;;;;;;5.93;88.23;98515.30;447050;1271;141753;-52
2022/01/03 14:35:44;;;;;;;3.70;2.20;;;;;;;5.87;88.31;98518.23;446835;1271;142383;-57
2022/01/03 14:45:51;;;;;;;3.30;3.00;;;;;;;5.93;88.43;98534.92;446189;1273;141625;-61
2022/01/03 14:55:57;;;;;;;4.10;3.00;;;;;;;5.94;88.62;98536.39;445595;1271;143228;-58
2022/01/03 15:06:03;;;;;;;6.10;3.60;;;;;;;5.96;88.91;98539.92;434501;1271;141387;-62
2022/01/03 15:16:09;;;;;;;5.60;3.80;;;;;;;5.97;89.19;98555.85;447141;1271;142273;-59
2022/01/03 15:26:15;;;;;;;10.30;5.80;;;;;;;5.91;89.18;98559.86;447076;1271;146198;-59
2022/01/03 15:36:21;;;;;;;8.50;6.60;;;;;;;5.90;89.46;98559.60;446335;1271;141846;-59
2022/01/03 15:46:27;;;;;;;10.40;6.50;;;;;;;5.86;89.60;98560.69;446984;1271;144407;-60
2022/01/03 15:56:33;;;;;;;13.60;5.60;;;;;;;5.88;89.72;98563.13;446875;1271;141327;-59
2022/01/03 16:06:39;;;;;;;10.90;6.20;;;;;;;5.82;89.82;98561.79;445652;1273;197161;-58
2022/01/03 16:16:45;;;;;;;7.60;5.20;;;;;;;5.79;89.79;98559.07;447103;1270;143924;-58
2022/01/03 16:26:51;;;;;;;10.90;6.50;;;;;;;5.77;89.81;98558.95;446686;1272;141890;-63
2022/01/03 16:36:57;;;;;;;10.80;6.00;;;;;;;5.79;89.49;98568.05;437019;1271;142072;-61
2022/01/03 16:47:03;;;;;;;8.00;4.90;;;;;;;5.79;89.61;98569.48;446568;1271;142639;-62
2022/01/03 16:57:09;;;;;;;8.10;4.40;;;;;;;5.74;89.56;98558.79;446336;1270;144471;-62
2022/01/03 17:07:15;;;;;;;8.40;5.00;;;;;;;5.60;89.55;98562.41;447017;1271;142225;-63
2022/01/03 17:17:21;;;;;;;13.20;5.90;;;;;;;5.42;89.31;98549.41;447156;1271;144890;-62
2022/01/03 17:27:29;;;;;;;13.90;6.40;;;;;;;5.16;89.68;98546.92;446390;1271;141567;-63
2022/01/03 17:37:35;;;;;;;11.40;4.50;;;;;;;5.09;90.14;98543.21;447127;1271;143051;-62
2022/01/03 17:47:41;;;;;;;8.30;5.10;;;;;;;5.07;90.15;98539.65;444599;1271;142089;-63
2022/01/03 17:57:47;;;;;;;8.60;5.20;;;;;;;5.08;90.03;98549.65;446237;1271;141805;-63
2022/01/03 18:07:54;;;;;;;13.00;4.80;;;;;;;5.07;89.77;98552.81;446787;1273;192407;-62
2022/01/03 18:18:00;;;;;;;8.50;4.00;;;;;;;5.09;89.74;98543.19;447033;1271;141581;-62
2022/01/03 18:28:07;;;;;;;9.40;4.40;;;;;;;5.16;89.70;98545.88;433825;1271;140934;-64
2022/01/03 18:38:14;;;;;;;10.40;3.90;;;;;;;5.17;89.60;98552.09;443815;1271;140984;-62
2022/01/03 18:48:19;;;;;;;7.40;3.70;;;;;;;5.23;89.71;98563.88;446316;1271;141697;-62
2022/01/03 18:58:25;;;;;;;10.30;4.00;;;;;;;5.28;89.39;98552.66;447093;1271;143143;-62
2022/01/03 19:08:32;;;;;;;7.00;4.10;;;;;;;5.23;88.98;98542.40;438356;1270;142152;-62
2022/01/03 19:18:40;;;;;;;10.70;4.90;;;;;;;4.91;88.94;98520.07;446509;1270;143001;-68
2022/01/03 19:28:46;;;;;;;9.00;4.60;;;;;;;4.60;88.87;98512.33;447400;1270;141900;-68
2022/01/03 19:38:52;;;;;;;14.10;6.10;;;;;;;4.26;89.43;98501.73;447052;1271;141942;-67
2022/01/03 19:48:59;;;;;;;16.80;9.70;;;;;;;4.03;89.61;98493.11;429927;1270;142181;-68
2022/01/03 19:59:05;;;;;;;17.90;7.90;;;;;;;3.89;89.91;98493.17;438961;1270;141823;-67
2022/01/03 20:09:11;;;;;;;12.70;7.50;;;;;;;3.96;90.38;98487.77;437527;1270;142483;-66
2022/01/03 20:19:17;;;;;;;18.10;9.10;;;;;;;4.13;90.61;98484.06;446937;1270;141557;-67
2022/01/03 20:29:23;;;;;;;19.30;8.70;;;;;;;4.26;90.24;98483.19;446470;1270;142367;-68
2022/01/03 20:39:29;;;;;;;17.50;9.40;;;;;;;4.36;90.47;98469.83;440243;1270;142729;-67
2022/01/03 20:49:36;;;;;;;17.60;9.20;;;;;;;4.43;89.88;98469.08;444886;1270;142126;-67
2022/01/03 20:59:42;;;;;;;20.30;9.70;;;;;;;4.48;89.73;98468.63;447422;1270;142016;-68
2022/01/03 21:09:47;;;;;;;17.40;9.00;;;;;;;4.53;89.73;98469.53;446457;1270;142397;-68
2022/01/03 21:19:53;;;;;;;20.20;9.00;;;;;;;4.57;89.50;98468.30;443761;1270;142541;-68
2022/01/03 21:29:59;;;;;;;9.90;6.50;;;;;;;4.61;89.35;98460.06;447418;1270;143220;-67
2022/01/03 21:40:06;;;;;;;10.20;5.70;;;;;;;4.67;88.99;98452.11;447347;1270;142111;-67
2022/01/03 21:50:12;;;;;;;10.90;6.30;;;;;;;4.80;88.81;98447.58;442909;1270;141780;-67
2022/01/03 22:00:19;;;;;;;11.10;7.60;;;;;;;4.88;88.48;98443.95;446661;1271;141944;-68
2022/01/03 22:10:25;;;;;;;11.70;5.20;;;;;;;4.91;88.17;98441.35;442383;1270;141893;-66
2022/01/03 22:20:32;;;;;;;9.70;4.20;;;;;;;4.90;87.74;98434.81;439309;1270;141824;-68
2022/01/03 22:30:38;;;;;;;7.50;4.80;;;;;;;4.82;87.37;98427.46;446616;1270;144199;-67
2022/01/03 22:40:44;;;;;;;10.50;5.20;;;;;;;4.60;87.06;98423.36;447340;1271;142867;-67
2022/01/03 22:50:50;;;;;;;11.90;4.70;;;;;;;4.28;86.90;98420.17;447204;1271;142672;-67
2022/01/03 23:00:56;;;;;;;9.50;4.80;;;;;;;4.03;87.44;98417.96;446390;1271;142410;-67
2022/01/03 23:11:02;;;;;;;7.70;4.10;;;;;;;4.09;87.68;98409.63;439235;1271;140904;-67
2022/01/03 23:21:08;;;;;;;8.90;6.10;;;;;;;4.10;87.47;98395.89;446552;1270;143825;-68
2022/01/03 23:31:14;;;;;;;9.30;5.70;;;;;;;3.82;87.36;98383.09;447430;1270;140650;-68
2022/01/03 23:41:20;;;;;;;15.20;6.10;;;;;;;3.48;87.48;98378.53;447394;1270;141480;-68
2022/01/03 23:51:26;;;;;;;11.40;5.10;;;;;;;3.09;87.67;98372.45;446605;1271;144911;-66
